Time;durP1;ratioP1;P1;durP2;ratioP2;P2;SDS_P1;SDS_P2;PMS_P1;PMS_P2;Temp;Humidity;BMP_temperature;BMP_pressure;BME280_temperature;BME280_humidity;BME280_pressure;Samples;Min_cycle;Max_cycle;Signal;HPM_P1;HPM_P2
2022/05/17 00:01:39;;;;;;;12.05;9.20;;;;;;;15.42;100.00;99816.09;5073217;28;20557;-77
2022/05/17 00:04:07;;;;;;;10.27;8.40;;;;;;;15.32;100.00;99817.78;5073021;28;20181;-77
2022/05/17 00:06:34;;;;;;;10.27;9.07;;;;;;;15.28;100.00;99813.56;5073525;28;20703;-77
2022/05/17 00:09:01;;;;;;;11.75;9.90;;;;;;;15.24;100.00;99823.78;5073389;28;20187;-77
2022/05/17 00:11:28;;;;;;;9.93;8.95;;;;;;;15.15;100.00;99830.75;5072849;28;20534;-76
2022/05/17 00:13:55;;;;;;;14.48;9.02;;;;;;;15.20;100.00;99830.41;5073087;28;20216;-78
2022/05/17 00:16:22;;;;;;;9.32;8.35;;;;;;;15.19;100.00;99821.38;5072361;28;20535;-77
2022/05/17 00:18:49;;;;;;;14.57;8.95;;;;;;;15.16;100.00;99827.03;5072926;28;20200;-77
2022/05/17 00:21:17;;;;;;;10.55;9.10;;;;;;;15.17;100.00;99828.78;5072153;28;20185;-77
2022/05/17 00:23:45;;;;;;;11.25;8.63;;;;;;;15.06;100.00;99823.28;5073391;28;20587;-77
2022/05/17 00:26:12;;;;;;;10.68;9.18;;;;;;;15.10;100.00;99826.63;5072395;28;20300;-78
2022/05/17 00:28:39;;;;;;;10.80;9.30;;;;;;;15.11;100.00;99825.66;5072371;28;20189;-77
2022/05/17 00:31:07;;;;;;;9.30;8.27;;;;;;;15.03;100.00;99818.06;5072821;28;20188;-77
2022/05/17 00:33:34;;;;;;;11.13;8.05;;;;;;;14.99;100.00;99809.31;5072943;28;20227;-77
2022/05/17 00:36:01;;;;;;;9.32;8.38;;;;;;;15.04;100.00;99817.09;5072218;28;20192;-77
2022/05/17 00:38:29;;;;;;;12.27;8.63;;;;;;;15.01;100.00;99809.16;5072784;28;20653;-78
2022/05/17 00:40:56;;;;;;;10.45;8.95;;;;;;;14.98;100.00;99818.41;5072463;28;20197;-77
2022/05/17 00:43:30;;;;;;;9.50;8.68;;;;;;;15.03;100.00;99815.34;5073036;28;20216;-77
2022/05/17 00:46:00;;;;;;;9.25;8.35;;;;;;;15.13;100.00;99807.44;5073117;28;20254;-77
2022/05/17 00:48:28;;;;;;;10.02;8.73;;;;;;;15.09;100.00;99809.50;5072260;28;20192;-78
2022/05/17 00:50:55;;;;;;;9.75;8.80;;;;;;;15.00;100.00;99810.16;5071365;28;20239;-78
2022/05/17 00:53:26;;;;;;;14.98;9.27;;;;;;;14.90;100.00;99809.97;5072197;28;20220;-78
2022/05/17 00:55:57;;;;;;;12.00;9.50;;;;;;;14.94;100.00;99810.59;5072400;28;20220;-78
2022/05/17 00:58:28;;;;;;;9.48;8.27;;;;;;;14.99;100.00;99809.31;5071875;28;20212;-78
2022/05/17 01:01:02;;;;;;;10.38;8.73;;;;;;;14.96;100.00;99808.66;5071334;28;20276;-77
2022/05/17 01:03:31;;;;;;;10.05;9.10;;;;;;;14.98;100.00;99818.41;5072323;28;20196;-77
2022/05/17 01:05:58;;;;;;;10.70;9.35;;;;;;;14.98;100.00;99817.53;5072140;28;20196;-77
2022/05/17 01:08:25;;;;;;;10.18;9.25;;;;;;;14.93;100.00;99819.72;5072144;28;20193;-77
2022/05/17 01:10:53;;;;;;;9.25;8.27;;;;;;;14.95;100.00;99810.50;5072512;28;20266;-78
2022/05/17 01:16:07;;;;;;;11.05;8.55;;;;;;;14.84;100.00;99813.13;5071855;28;20306;-78
2022/05/17 01:18:35;;;;;;;10.98;9.32;;;;;;;14.82;100.00;99822.34;5072075;28;20181;-77
2022/05/17 01:21:03;;;;;;;12.85;8.85;;;;;;;14.89;100.00;99818.22;5071834;28;20212;-79
2022/05/17 01:23:31;;;;;;;11.75;8.57;;;;;;;14.96;100.00;99824.91;5071864;28;20181;-78
2022/05/17 01:25:58;;;;;;;9.13;8.18;;;;;;;15.11;100.00;99818.38;5071957;28;20197;-78
2022/05/17 01:28:27;;;;;;;11.30;8.85;;;;;;;15.01;100.00;99818.19;5071616;28;20648;-78
2022/05/17 01:30:54;;;;;;;10.88;8.23;;;;;;;15.10;100.00;99821.19;5071311;28;20188;-78
2022/05/17 01:33:23;;;;;;;10.05;8.80;;;;;;;14.89;100.00;99812.78;5072247;28;20693;-78
2022/05/17 01:35:49;;;;;;;9.00;8.07;;;;;;;14.93;100.00;99812.47;5071726;28;20197;-78
2022/05/17 01:38:17;;;;;;;10.23;8.60;;;;;;;14.90;100.00;99815.41;5071474;28;20185;-78
2022/05/17 01:40:44;;;;;;;10.40;8.32;;;;;;;14.85;100.00;99812.13;5071641;28;20197;-77
2022/05/17 01:43:11;;;;;;;10.40;8.50;;;;;;;14.88;100.00;99806.50;5071825;28;20181;-77
2022/05/17 01:45:37;;;;;;;9.05;7.82;;;;;;;15.01;100.00;99811.88;5071611;28;20203;-78
2022/05/17 01:48:05;;;;;;;10.20;9.07;;;;;;;15.05;100.00;99802.56;5071680;28;20189;-78
2022/05/17 01:50:31;;;;;;;9.13;8.15;;;;;;;15.02;100.00;99798.22;5071131;28;20207;-78
2022/05/17 01:52:58;;;;;;;9.23;7.90;;;;;;;14.79;100.00;99799.91;5070966;28;20212;-79
2022/05/17 01:55:26;;;;;;;8.30;7.45;;;;;;;14.65;100.00;99804.59;5071453;28;20193;-77
2022/05/17 01:57:53;;;;;;;8.90;8.00;;;;;;;14.56;100.00;99800.69;5071274;28;20627;-78
2022/05/17 02:00:23;;;;;;;11.32;8.80;;;;;;;14.39;100.00;99800.00;5071679;28;20207;-77
2022/05/17 02:02:50;;;;;;;8.65;7.85;;;;;;;14.33;100.00;99811.28;5070291;28;20201;-78
2022/05/17 02:05:17;;;;;;;11.80;8.63;;;;;;;14.33;100.00;99810.41;5071626;28;20191;-76
2022/05/17 02:07:44;;;;;;;9.73;8.18;;;;;;;14.25;100.00;99815.53;5071492;28;20192;-77
2022/05/17 02:10:12;;;;;;;9.60;8.70;;;;;;;14.27;100.00;99810.84;5071863;28;20202;-78
2022/05/17 02:12:40;;;;;;;9.75;8.32;;;;;;;14.23;100.00;99804.78;5071518;28;20203;-78
2022/05/17 02:15:08;;;;;;;10.57;8.90;;;;;;;14.21;100.00;99812.16;5071661;28;20208;-77
2022/05/17 02:17:37;;;;;;;10.70;9.57;;;;;;;14.33;100.00;99800.44;5071482;28;20689;-77
2022/05/17 02:20:05;;;;;;;10.60;9.60;;;;;;;14.42;100.00;99798.94;5071193;28;20195;-78
2022/05/17 02:22:32;;;;;;;10.13;9.13;;;;;;;14.36;100.00;99804.78;5071780;28;20283;-77
2022/05/17 02:24:58;;;;;;;10.50;9.23;;;;;;;14.49;100.00;99802.94;5071151;28;20199;-79
2022/05/17 02:27:25;;;;;;;10.40;9.30;;;;;;;14.30;100.00;99811.50;5071290;28;20200;-79
2022/05/17 02:29:53;;;;;;;9.07;8.18;;;;;;;14.16;100.00;99811.59;5071154;28;20192;-78
2022/05/17 02:32:20;;;;;;;12.75;9.48;;;;;;;14.06;100.00;99807.78;5071620;28;20214;-78
2022/05/17 02:34:46;;;;;;;9.40;8.50;;;;;;;14.11;100.00;99816.44;5071301;28;20242;-78
2022/05/17 02:37:15;;;;;;;10.57;9.48;;;;;;;14.07;100.00;99815.81;5071373;28;20200;-78
2022/05/17 02:39:41;;;;;;;10.23;8.60;;;;;;;14.11;100.00;99822.75;5071325;28;20653;-77
2022/05/17 02:42:09;;;;;;;10.75;8.98;;;;;;;13.99;100.00;99823.59;5071067;28;20185;-76
2022/05/17 02:44:36;;;;;;;10.93;8.90;;;;;;;14.07;100.00;99818.53;5070729;28;20641;-77
2022/05/17 02:47:05;;;;;;;10.13;8.95;;;;;;;14.01;100.00;99815.38;5071374;28;20204;-77
2022/05/17 02:49:31;;;;;;;12.90;9.43;;;;;;;13.90;100.00;99819.66;5073577;28;20532;-77
2022/05/17 02:52:01;;;;;;;12.82;9.80;;;;;;;13.95;100.00;99833.78;5074734;28;20231;-78
2022/05/17 02:54:28;;;;;;;12.38;8.95;;;;;;;13.94;100.00;99826.63;5074186;28;20573;-78
2022/05/17 02:56:54;;;;;;;11.10;9.73;;;;;;;13.91;100.00;99826.84;5074409;28;20193;-77
2022/05/17 02:59:21;;;;;;;11.15;9.95;;;;;;;13.93;100.00;99819.47;5074713;28;20195;-77
2022/05/17 03:01:48;;;;;;;11.20;8.98;;;;;;;13.89;100.00;99828.78;5074770;28;20620;-77
2022/05/17 03:04:16;;;;;;;10.30;9.30;;;;;;;13.90;100.00;99825.09;5074605;28;20184;-78
2022/05/17 03:06:44;;;;;;;12.00;9.18;;;;;;;13.85;100.00;99829.09;5074774;28;20195;-79
2022/05/17 03:09:11;;;;;;;12.95;10.07;;;;;;;13.82;100.00;99838.28;5074156;28;20630;-77
2022/05/17 03:11:41;;;;;;;10.75;8.85;;;;;;;13.90;100.00;99844.03;5074682;28;20627;-78
2022/05/17 03:14:08;;;;;;;10.52;9.35;;;;;;;13.79;100.00;99843.88;5074340;28;20603;-78
2022/05/17 03:16:35;;;;;;;10.98;9.88;;;;;;;13.74;100.00;99843.34;5074568;28;20234;-78
2022/05/17 03:19:03;;;;;;;11.57;10.25;;;;;;;13.68;100.00;99841.94;5074058;28;20274;-78
2022/05/17 03:21:31;;;;;;;11.30;8.98;;;;;;;13.71;100.00;99848.97;5074610;28;20185;-78
2022/05/17 03:23:58;;;;;;;10.02;9.02;;;;;;;13.65;100.00;99844.81;5073174;28;20191;-78
2022/05/17 03:26:25;;;;;;;11.20;10.07;;;;;;;13.68;100.00;99841.94;5074381;28;20530;-78
2022/05/17 03:28:52;;;;;;;11.27;9.90;;;;;;;13.72;100.00;99845.28;5073921;28;20191;-78
2022/05/17 03:31:18;;;;;;;10.50;9.50;;;;;;;13.66;100.00;99843.00;5074117;28;20657;-78
2022/05/17 03:33:45;;;;;;;10.43;9.25;;;;;;;13.47;100.00;99838.78;5074080;28;20207;-78
2022/05/17 03:36:12;;;;;;;10.55;9.55;;;;;;;13.49;100.00;99844.97;5074329;28;20209;-77
2022/05/17 03:38:39;;;;;;;9.48;8.45;;;;;;;13.58;100.00;99835.38;5073931;28;20549;-77
2022/05/17 03:41:06;;;;;;;10.23;9.23;;;;;;;13.71;100.00;99838.16;5074123;28;20524;-77
2022/05/17 03:43:33;;;;;;;12.18;9.35;;;;;;;13.72;100.00;99837.16;5073574;28;20195;-78
2022/05/17 03:46:00;;;;;;;11.57;9.85;;;;;;;13.89;100.00;99842.31;5073703;28;20200;-78
2022/05/17 03:48:28;;;;;;;11.32;9.63;;;;;;;13.78;100.00;99839.47;5093122;28;20222;-78
2022/05/17 03:50:55;;;;;;;12.18;10.30;;;;;;;13.71;100.00;99835.44;5094030;28;20235;-78
2022/05/17 03:53:22;;;;;;;11.25;9.30;;;;;;;13.71;100.00;99835.44;5080156;28;20209;-78
2022/05/17 03:55:50;;;;;;;11.95;9.82;;;;;;;13.64;100.00;99847.66;5073690;28;20634;-78
2022/05/17 03:58:17;;;;;;;10.07;9.05;;;;;;;13.64;100.00;99845.81;5073182;28;20701;-78
2022/05/17 04:00:43;;;;;;;11.57;10.38;;;;;;;13.66;100.00;99849.28;5073414;28;20546;-78
2022/05/17 04:03:10;;;;;;;12.68;10.00;;;;;;;13.63;100.00;99849.47;5073173;28;20190;-78
2022/05/17 04:05:37;;;;;;;10.90;9.80;;;;;;;13.80;100.00;99851.06;5073248;28;20204;-78
2022/05/17 04:08:04;;;;;;;9.90;8.75;;;;;;;13.68;100.00;99843.75;5073696;28;20534;-78
2022/05/17 04:10:30;;;;;;;13.07;10.27;;;;;;;13.54;100.00;99852.78;5073336;28;20701;-78
2022/05/17 04:12:58;;;;;;;11.85;10.65;;;;;;;13.54;100.00;99855.50;5073575;28;20640;-78
2022/05/17 04:15:25;;;;;;;11.43;10.27;;;;;;;13.62;100.00;99852.28;5072518;28;20214;-78
2022/05/17 04:17:54;;;;;;;11.23;9.80;;;;;;;13.80;100.00;99851.06;5073136;28;20285;-78
2022/05/17 04:20:21;;;;;;;13.80;10.38;;;;;;;13.84;100.00;99849.00;5073278;28;20191;-79
2022/05/17 04:22:52;;;;;;;17.08;10.63;;;;;;;13.93;100.00;99849.25;5073236;28;20200;-79
2022/05/17 04:25:20;;;;;;;15.90;12.35;;;;;;;13.93;100.00;99851.97;5072556;28;20188;-79
2022/05/17 04:27:47;;;;;;;13.18;11.43;;;;;;;14.10;100.00;99844.50;5072592;28;20284;-78
2022/05/17 04:30:16;;;;;;;17.98;13.95;;;;;;;14.29;100.00;99850.41;5072351;28;20196;-78
2022/05/17 04:32:43;;;;;;;14.45;10.45;;;;;;;14.41;100.00;99845.09;5072371;28;20319;-78
2022/05/17 04:35:10;;;;;;;14.20;12.55;;;;;;;14.39;100.00;99846.06;5073229;28;20226;-79
2022/05/17 04:37:37;;;;;;;19.13;12.40;;;;;;;14.39;100.00;99842.50;5073042;28;20231;-78
2022/05/17 04:40:04;;;;;;;12.30;10.82;;;;;;;14.43;100.00;99845.88;5073245;28;20318;-78
2022/05/17 04:42:31;;;;;;;12.68;11.43;;;;;;;14.60;100.00;99848.25;5072705;28;20187;-78
2022/05/17 04:44:58;;;;;;;24.67;12.60;;;;;;;14.50;100.00;99852.59;5072849;28;20207;-77
2022/05/17 04:47:26;;;;;;;14.48;13.00;;;;;;;14.41;100.00;99856.81;5072586;28;20193;-78
2022/05/17 04:49:52;;;;;;;16.45;13.10;;;;;;;14.27;100.00;99855.06;5072784;28;20567;-78
2022/05/17 04:52:19;;;;;;;16.20;13.68;;;;;;;14.45;100.00;99862.84;5072434;28;20697;-78
2022/05/17 04:54:45;;;;;;;15.77;13.40;;;;;;;14.49;100.00;99864.38;5072711;28;20219;-79
2022/05/17 04:57:13;;;;;;;19.35;15.07;;;;;;;14.71;100.00;99870.06;5052719;28;20209;-79
2022/05/17 04:59:40;;;;;;;16.50;14.73;;;;;;;14.97;100.00;99865.50;5053023;28;20193;-78
2022/05/17 05:02:07;;;;;;;17.70;14.65;;;;;;;15.30;100.00;99864.00;5052471;28;20203;-77
2022/05/17 05:04:35;;;;;;;20.33;16.17;;;;;;;15.52;100.00;99862.41;5052617;28;20272;-77
2022/05/17 05:07:02;;;;;;;19.40;17.35;;;;;;;15.52;100.00;99868.72;5050723;28;20205;-77
2022/05/17 05:09:28;;;;;;;22.10;16.63;;;;;;;15.71;100.00;99862.78;5051628;28;20191;-78
2022/05/17 05:11:55;;;;;;;21.00;17.77;;;;;;;15.77;100.00;99864.19;5051321;28;20527;-78
2022/05/17 05:14:22;;;;;;;18.55;16.42;;;;;;;15.87;100.00;99872.50;5051467;28;20205;-78
2022/05/17 05:16:48;;;;;;;18.83;16.90;;;;;;;15.89;100.00;99871.41;5070162;28;20204;-77
2022/05/17 05:19:15;;;;;;;17.63;15.73;;;;;;;16.09;100.00;99872.59;5071900;28;20185;-78
2022/05/17 05:21:43;;;;;;;19.70;17.08;;;;;;;16.14;100.00;99864.94;5071713;28;20312;-78
2022/05/17 05:24:11;;;;;;;17.08;14.60;;;;;;;16.04;100.00;99864.78;5071680;28;20204;-78
2022/05/17 05:26:39;;;;;;;19.05;15.77;;;;;;;16.16;100.00;99867.56;5071121;28;20200;-78
2022/05/17 05:29:06;;;;;;;17.75;15.65;;;;;;;16.37;100.00;99865.00;5071684;28;20215;-78
2022/05/17 05:31:33;;;;;;;20.10;15.50;;;;;;;16.28;100.00;99869.34;5071063;28;20193;-78
2022/05/17 05:34:00;;;;;;;19.77;16.45;;;;;;;16.28;100.00;99866.63;5071064;28;20287;-79
2022/05/17 05:36:27;;;;;;;22.00;15.73;;;;;;;16.28;100.00;99869.34;5071426;28;20185;-77
2022/05/17 05:38:56;;;;;;;19.98;16.48;;;;;;;16.28;100.00;99877.50;5071468;28;20515;-74
2022/05/17 05:41:23;;;;;;;18.60;16.60;;;;;;;16.50;100.00;99873.09;5070386;28;20564;-78
2022/05/17 05:43:49;;;;;;;23.40;16.85;;;;;;;16.58;100.00;99874.22;5071822;28;20639;-77
2022/05/17 05:46:24;;;;;;;19.60;17.52;;;;;;;16.66;100.00;99877.22;5071932;28;20624;-78
2022/05/17 05:48:51;;;;;;;18.10;15.80;;;;;;;16.64;100.00;99881.91;5071259;28;20190;-78
2022/05/17 05:51:18;;;;;;;23.23;17.85;;;;;;;16.70;100.00;99885.97;5070721;28;20234;-77
2022/05/17 05:53:45;;;;;;;30.85;20.40;;;;;;;16.60;100.00;99883.13;5071017;28;20638;-78
2022/05/17 05:56:13;;;;;;;25.20;20.10;;;;;;;16.67;100.00;99880.78;5071800;28;20284;-76
2022/05/17 05:58:42;;;;;;;21.48;18.17;;;;;;;16.80;100.00;99887.03;5071245;28;20227;-77
2022/05/17 06:01:09;;;;;;;21.23;18.52;;;;;;;17.02;100.00;99882.56;5071614;28;20224;-79
2022/05/17 06:03:37;;;;;;;23.33;18.30;;;;;;;17.28;100.00;99891.34;5071221;28;20186;-77
2022/05/17 06:06:04;;;;;;;22.30;18.15;;;;;;;17.29;100.00;99890.34;5070931;28;20214;-77
2022/05/17 06:08:31;;;;;;;20.77;18.30;;;;;;;17.51;100.00;99900.34;5071387;28;20183;-77
2022/05/17 06:10:58;;;;;;;19.27;17.23;;;;;;;17.74;100.00;99893.00;5071340;28;20536;-77
2022/05/17 06:13:26;;;;;;;20.20;16.50;;;;;;;17.62;100.00;99884.00;5071346;28;20735;-76
2022/05/17 06:15:53;;;;;;;21.98;17.73;;;;;;;17.65;100.00;99897.34;5071360;28;20212;-76
2022/05/17 06:18:20;;;;;;;20.23;17.60;;;;;;;17.98;100.00;99891.97;5071635;28;20199;-77
2022/05/17 06:20:49;;;;;;;20.45;16.98;;;;;;;18.50;100.00;99891.09;5071576;28;20211;-77
2022/05/17 06:23:16;;;;;;;20.17;17.20;;;;;;;18.81;100.00;99887.59;5071414;28;20200;-78
2022/05/17 06:25:43;;;;;;;18.30;16.17;;;;;;;18.96;100.00;99892.53;5075283;28;20665;-78
2022/05/17 06:28:10;;;;;;;20.92;17.23;;;;;;;18.71;100.00;99896.53;5074789;28;20222;-77
2022/05/17 06:30:41;;;;;;;23.40;18.05;;;;;;;18.93;100.00;99894.69;5075511;28;20181;-77
2022/05/17 06:33:08;;;;;;;19.77;17.65;;;;;;;19.14;100.00;99897.38;5075067;28;20538;-78
2022/05/17 06:35:35;;;;;;;18.80;16.83;;;;;;;19.15;100.00;99891.78;5074642;28;20547;-77
2022/05/17 06:38:02;;;;;;;22.58;17.50;;;;;;;19.22;100.00;99897.56;5074927;28;20189;-78
2022/05/17 06:40:28;;;;;;;23.38;18.42;;;;;;;19.33;100.00;99889.28;5075210;28;20551;-77
2022/05/17 06:42:55;;;;;;;22.70;19.37;;;;;;;19.62;100.00;99890.34;5074844;28;20654;-77
2022/05/17 06:45:21;;;;;;;21.93;19.40;;;;;;;20.02;100.00;99894.91;5075232;28;21268;-78
2022/05/17 06:47:49;;;;;;;20.47;18.27;;;;;;;20.11;99.08;99891.31;5075363;28;21145;-77
2022/05/17 06:50:16;;;;;;;23.93;17.53;;;;;;;20.60;93.71;99895.78;5074685;28;20449;-78
2022/05/17 06:52:44;;;;;;;24.00;19.00;;;;;;;20.93;89.29;99901.75;5074643;28;20427;-80
2022/05/17 06:55:11;;;;;;;27.93;21.00;;;;;;;21.16;88.33;99899.50;5074432;28;20558;-77
2022/05/17 06:57:37;;;;;;;22.13;19.60;;;;;;;21.45;85.84;99904.03;5074882;28;20468;-76
2022/05/17 07:00:05;;;;;;;18.13;16.10;;;;;;;21.66;83.78;99903.75;5073986;28;20971;-77
2022/05/17 07:02:32;;;;;;;21.20;17.60;;;;;;;21.79;82.19;99906.16;5074898;28;20843;-77
2022/05/17 07:05:01;;;;;;;22.13;19.20;;;;;;;21.75;82.54;99904.72;5074334;28;20435;-77
2022/05/17 07:07:27;;;;;;;22.37;19.97;;;;;;;21.95;80.80;99894.50;5074586;28;20453;-77
2022/05/17 07:15:29;;;;;;;23.37;17.33;;;;;;;21.97;82.74;99892.47;5075851;28;21024;-81
2022/05/17 07:17:59;;;;;;;25.23;18.53;;;;;;;21.97;82.96;99893.31;5075856;28;20526;-81
2022/05/17 07:20:27;;;;;;;19.27;17.20;;;;;;;21.76;84.77;99899.09;5075795;28;20431;-79
2022/05/17 07:22:54;;;;;;;19.07;15.40;;;;;;;21.97;84.33;99897.97;5075040;28;20434;-81
2022/05/17 07:25:21;;;;;;;16.53;13.60;;;;;;;22.13;83.48;99894.53;5075675;28;20424;-81
2022/05/17 07:27:48;;;;;;;17.83;14.67;;;;;;;22.42;81.43;99899.78;5075554;28;20441;-79
2022/05/17 07:30:15;;;;;;;14.93;13.43;;;;;;;22.61;80.20;99893.25;5075471;28;20427;-81
2022/05/17 07:32:41;;;;;;;17.70;14.70;;;;;;;22.66;80.30;99889.03;5075912;28;20449;-81
2022/05/17 07:35:09;;;;;;;15.13;13.40;;;;;;;22.54;80.61;99895.75;5075476;28;20975;-80
2022/05/17 07:37:37;;;;;;;12.50;11.20;;;;;;;22.42;80.49;99897.06;5075030;28;20433;-81
2022/05/17 07:40:04;;;;;;;15.73;11.60;;;;;;;22.33;82.63;99900.75;5074387;28;20439;-80
2022/05/17 07:42:31;;;;;;;15.43;11.17;;;;;;;22.36;82.51;99898.53;5075304;28;20424;-81
2022/05/17 07:44:58;;;;;;;14.20;9.60;;;;;;;22.50;80.00;99897.13;5075348;28;20451;-81
2022/05/17 07:47:25;;;;;;;14.40;8.57;;;;;;;22.30;79.34;99896.44;5075171;28;20507;-81
2022/05/17 07:49:52;;;;;;;10.57;7.80;;;;;;;22.57;76.97;99891.88;5075134;28;20513;-81
2022/05/17 07:52:18;;;;;;;14.33;8.63;;;;;;;22.90;75.85;99892.94;5075512;28;20479;-80
2022/05/17 07:54:46;;;;;;;7.47;6.10;;;;;;;23.15;73.08;99890.38;5075662;28;20449;-80
2022/05/17 07:57:13;;;;;;;8.20;5.97;;;;;;;23.43;68.74;99893.81;5075011;28;20434;-81
2022/05/17 07:59:39;;;;;;;9.73;7.13;;;;;;;23.63;68.80;99888.88;5075966;28;20425;-81
2022/05/17 08:02:06;;;;;;;9.93;7.33;;;;;;;23.85;66.21;99893.78;5077390;28;20478;-81
2022/05/17 08:04:33;;;;;;;8.70;5.77;;;;;;;24.14;64.47;99892.47;5076250;28;20441;-81
2022/05/17 08:07:00;;;;;;;6.37;5.60;;;;;;;24.38;62.74;99888.91;5076470;28;20423;-80
2022/05/17 08:09:27;;;;;;;10.10;6.27;;;;;;;24.49;61.79;99893.22;5076162;28;20438;-80
2022/05/17 08:11:55;;;;;;;7.57;4.43;;;;;;;24.20;59.99;99886.31;5076627;28;20435;-82
2022/05/17 08:14:22;;;;;;;9.30;4.20;;;;;;;24.21;61.00;99878.91;5076488;28;20443;-81
2022/05/17 08:16:49;;;;;;;7.10;4.93;;;;;;;24.36;61.22;99879.94;5076625;28;20830;-82
2022/05/17 08:19:15;;;;;;;8.03;5.30;;;;;;;24.74;60.70;99883.94;5077410;28;20986;-80
2022/05/17 08:21:42;;;;;;;7.60;5.13;;;;;;;24.90;60.16;99885.78;5076652;28;20411;-80
2022/05/17 08:24:09;;;;;;;5.80;4.53;;;;;;;24.80;58.77;99876.84;5075955;28;20526;-80
2022/05/17 08:29:21;;;;;;;5.47;4.03;;;;;;;24.14;59.35;99885.06;5076300;28;20545;-80
2022/05/17 08:33:14;;;;;;;8.77;3.77;;;;;;;24.03;57.73;99884.56;5076795;28;20860;-80
2022/05/17 08:34:36;;;;;;;6.00;3.70;;;;;;;23.88;57.18;99885.22;5075896;28;20415;-81
2022/05/17 08:37:03;;;;;;;6.50;3.00;;;;;;;23.98;56.72;99882.31;5076138;28;20508;-79
2022/05/17 08:39:31;;;;;;;8.20;4.37;;;;;;;24.65;53.14;99884.09;5075761;28;20612;-81
2022/05/17 08:42:03;;;;;;;9.07;3.73;;;;;;;25.02;52.65;99885.44;5075997;28;20469;-81
2022/05/17 08:44:44;;;;;;;5.23;3.70;;;;;;;25.10;52.67;99886.28;5076194;28;20586;-80
2022/05/17 08:47:17;;;;;;;7.40;4.60;;;;;;;25.25;52.79;99883.66;5075103;28;20482;-80
2022/05/17 08:49:50;;;;;;;5.60;3.80;;;;;;;25.20;52.76;99896.25;5076413;28;20443;-80
2022/05/17 08:52:19;;;;;;;7.53;6.00;;;;;;;25.03;52.66;99893.50;5076250;28;20553;-81
2022/05/17 08:54:52;;;;;;;5.87;4.60;;;;;;;25.00;53.17;99887.50;5076772;28;20796;-80
2022/05/17 08:57:23;;;;;;;6.60;4.27;;;;;;;24.97;54.13;99889.56;5076906;28;20482;-80
2022/05/17 08:59:52;;;;;;;4.67;4.13;;;;;;;24.80;54.12;99887.84;5076602;28;20511;-82
2022/05/17 09:02:24;;;;;;;4.93;3.90;;;;;;;24.73;54.23;99886.84;5077225;28;21024;-81
2022/05/17 09:05:06;;;;;;;5.90;3.67;;;;;;;25.02;53.20;99880.78;5076940;28;20423;-81
2022/05/17 09:07:41;;;;;;;5.83;4.43;;;;;;;25.22;52.41;99886.78;5076162;28;20512;-81
2022/05/17 09:10:18;;;;;;;6.87;4.97;;;;;;;25.08;52.94;99876.47;5076274;28;20786;-80
2022/05/17 09:12:52;;;;;;;6.80;4.03;;;;;;;25.08;53.18;99879.22;5075739;28;20426;-80
2022/05/17 09:15:20;;;;;;;14.40;4.30;;;;;;;25.35;52.94;99875.19;5076798;28;20990;-80
2022/05/17 09:17:48;;;;;;;6.00;4.30;;;;;;;25.39;52.44;99876.53;5076352;28;20449;-80
2022/05/17 09:20:18;;;;;;;5.07;4.57;;;;;;;25.42;52.90;99873.44;5076340;28;20427;-81
2022/05/17 09:22:44;;;;;;;6.03;5.20;;;;;;;25.29;53.49;99870.41;5076204;28;20966;-79
2022/05/17 09:25:17;;;;;;;7.10;4.40;;;;;;;24.84;54.58;99871.88;5076465;28;20940;-80
2022/05/17 09:27:48;;;;;;;8.17;5.07;;;;;;;25.09;53.43;99865.25;5075916;28;20431;-80
2022/05/17 09:30:34;;;;;;;6.83;4.40;;;;;;;25.20;53.19;99865.94;5075784;28;20769;-80
2022/05/17 09:33:05;;;;;;;4.70;4.30;;;;;;;25.26;52.45;99862.47;5076217;28;20754;-80
2022/05/17 09:35:32;;;;;;;5.17;4.67;;;;;;;25.12;53.52;99867.66;5076497;28;20493;-80
2022/05/17 09:38:04;;;;;;;5.03;4.03;;;;;;;25.35;53.57;99864.19;5075917;28;20438;-81
2022/05/17 09:40:33;;;;;;;6.03;4.70;;;;;;;25.16;54.41;99859.88;5075917;28;20507;-81
2022/05/17 09:43:06;;;;;;;5.93;4.40;;;;;;;25.46;53.50;99860.16;5075806;28;20447;-80
2022/05/17 09:45:46;;;;;;;6.90;4.20;;;;;;;25.55;52.38;99859.94;5075569;28;20451;-81
2022/05/17 09:48:25;;;;;;;5.10;4.60;;;;;;;25.73;51.69;99862.44;5075967;28;20449;-81
2022/05/17 09:53:42;;;;;;;5.90;5.10;;;;;;;25.75;50.75;99853.97;5075144;28;20409;-81
2022/05/17 09:56:09;;;;;;;6.27;5.67;;;;;;;25.76;50.70;99852.94;5075032;28;20466;-80
2022/05/17 09:58:38;;;;;;;7.27;4.43;;;;;;;25.61;50.62;99852.84;5083320;28;20439;-80
2022/05/17 10:01:12;;;;;;;10.17;4.57;;;;;;;25.62;50.38;99853.69;5079821;28;20501;-80
2022/05/17 10:03:41;;;;;;;7.87;4.90;;;;;;;25.79;49.80;99847.91;5079676;28;20421;-81
2022/05/17 10:06:15;;;;;;;5.33;4.40;;;;;;;25.64;49.33;99846.97;5076781;28;20476;-81
2022/05/17 10:08:46;;;;;;;6.73;5.00;;;;;;;25.59;49.83;99841.97;5080496;28;20886;-81
2022/05/17 10:11:18;;;;;;;5.00;4.40;;;;;;;25.69;49.74;99844.53;5080019;28;20437;-81
2022/05/17 10:14:02;;;;;;;4.73;4.33;;;;;;;25.83;49.89;99837.38;5080266;28;20427;-81
2022/05/17 10:16:37;;;;;;;5.30;4.80;;;;;;;25.78;49.39;99831.56;5080505;28;20473;-81
2022/05/17 10:19:11;;;;;;;8.73;5.20;;;;;;;25.93;49.68;99835.25;5080414;28;20426;-81
2022/05/17 10:21:43;;;;;;;9.70;5.17;;;;;;;26.03;49.57;99836.91;5080210;28;20437;-81
2022/05/17 10:24:18;;;;;;;5.43;4.93;;;;;;;26.15;49.21;99835.47;5060274;28;20436;-80
2022/05/17 10:26:49;;;;;;;12.10;8.60;;;;;;;26.20;49.29;99835.75;5059995;28;20804;-80
2022/05/17 10:29:26;;;;;;;5.90;5.27;;;;;;;26.32;48.94;99839.81;5060208;28;20443;-81
2022/05/17 10:32:00;;;;;;;6.37;4.00;;;;;;;26.35;44.53;99836.69;5059462;28;20428;-81
2022/05/17 10:34:37;;;;;;;5.10;4.00;;;;;;;26.19;44.37;99826.63;5060111;28;20481;-81
2022/05/17 10:37:10;;;;;;;5.20;4.70;;;;;;;26.11;47.34;99826.69;5060286;28;21304;-82
2022/05/17 10:39:44;;;;;;;5.10;4.60;;;;;;;26.32;47.26;99827.91;5059637;28;20853;-81
2022/05/17 10:42:10;;;;;;;5.37;4.87;;;;;;;26.41;46.90;99827.66;5077932;28;20434;-81
2022/05/17 10:44:40;;;;;;;5.43;4.83;;;;;;;26.67;46.30;99818.13;5076487;28;20935;-80
2022/05/17 10:47:15;;;;;;;6.43;4.23;;;;;;;26.65;45.97;99817.44;5079010;28;20427;-80
2022/05/17 10:49:56;;;;;;;5.93;4.70;;;;;;;26.70;45.05;99823.25;5074452;28;20438;-81
2022/05/17 10:52:31;;;;;;;4.57;3.87;;;;;;;26.70;43.95;99812.19;5077759;28;20465;-81
2022/05/17 10:55:08;;;;;;;6.20;4.13;;;;;;;26.80;45.67;99811.94;5077744;28;20885;-81
2022/05/17 10:57:44;;;;;;;6.43;3.93;;;;;;;26.79;46.53;99801.94;5078018;28;20473;-81
2022/05/17 11:00:18;;;;;;;6.83;5.10;;;;;;;26.52;47.27;99806.16;5077346;28;20516;-82
2022/05/17 11:03:23;;;;;;;7.93;4.20;;;;;;;26.15;46.96;99810.63;5075890;28;20426;-81
2022/05/17 11:06:03;;;;;;;8.43;7.60;;;;;;;26.10;46.78;99804.81;5060113;28;20442;-81
2022/05/17 11:08:52;;;;;;;4.57;4.17;;;;;;;26.09;46.27;99800.31;5076268;28;20441;-81
2022/05/17 11:11:41;;;;;;;5.07;4.57;;;;;;;26.11;46.66;99799.09;5073094;28;20442;-81
2022/05/17 11:14:13;;;;;;;9.43;4.70;;;;;;;26.30;46.12;99796.84;5074471;28;20441;-82
2022/05/17 11:16:58;;;;;;;6.67;5.00;;;;;;;25.95;46.50;99799.22;5074973;28;20474;-81
2022/05/17 11:19:31;;;;;;;7.43;5.00;;;;;;;25.98;47.51;99796.97;5073816;28;20431;-79
2022/05/17 11:22:06;;;;;;;5.33;4.63;;;;;;;26.39;46.80;99791.09;5076685;28;20744;-81
2022/05/17 11:25:01;;;;;;;5.00;4.50;;;;;;;26.18;47.02;99788.16;5076398;28;20889;-81
2022/05/17 11:27:43;;;;;;;8.43;4.27;;;;;;;26.14;46.57;99793.22;5074821;28;20427;-81
2022/05/17 11:30:21;;;;;;;4.27;3.90;;;;;;;26.29;44.72;99782.22;5076951;28;20521;-81
2022/05/17 11:33:30;;;;;;;7.87;4.30;;;;;;;25.92;43.91;99783.06;5077219;28;20442;-81
2022/05/17 11:35:59;;;;;;;5.87;5.23;;;;;;;25.78;45.60;99779.16;5013294;28;20544;-81
2022/05/17 11:38:51;;;;;;;4.27;3.87;;;;;;;25.48;47.25;99775.38;5012209;28;20456;-80
2022/05/17 11:41:22;;;;;;;6.13;4.43;;;;;;;25.51;46.43;99773.13;5033691;28;20456;-77
2022/05/17 11:44:15;;;;;;;4.17;3.83;;;;;;;25.93;44.71;99769.06;5055192;28;20447;-81
2022/05/17 11:46:49;;;;;;;9.20;4.50;;;;;;;26.11;43.23;99757.69;5051032;28;20518;-81